Time;durP1;ratioP1;P1;durP2;ratioP2;P2;SDS_P1;SDS_P2;PMS_P1;PMS_P2;Temp;Humidity;BMP_temperature;BMP_pressure;BME280_temperature;BME280_humidity;BME280_pressure;Samples;Min_cycle;Max_cycle;Signal;HPM_P1;HPM_P2
2020/02/27 00:02:21;;;;;;;1.43;1.24;;;;;;;18.23;39.79;99870.28;;;;-52
2020/02/27 00:05:21;;;;;;;1.17;1.11;;;;;;;18.23;39.81;99874.79;;;;-51
2020/02/27 00:08:21;;;;;;;1.22;1.10;;;;;;;18.21;39.80;99874.48;;;;-53
2020/02/27 00:11:21;;;;;;;1.27;1.13;;;;;;;18.22;39.80;99882.67;;;;-52
2020/02/27 00:14:21;;;;;;;1.25;1.15;;;;;;;18.22;39.79;99885.78;;;;-51
2020/02/27 00:17:21;;;;;;;2.11;1.13;;;;;;;18.20;39.82;99883.02;;;;-51
2020/02/27 00:20:21;;;;;;;1.33;1.23;;;;;;;18.19;39.82;99883.66;;;;-51
2020/02/27 00:23:21;;;;;;;1.23;1.13;;;;;;;18.18;39.81;99882.72;;;;-52
2020/02/27 00:26:21;;;;;;;1.29;1.19;;;;;;;18.17;39.82;99881.34;;;;-50
2020/02/27 00:29:21;;;;;;;1.30;1.20;;;;;;;18.17;39.82;99887.08;;;;-51
2020/02/27 00:32:21;;;;;;;1.10;1.10;;;;;;;18.17;39.80;99887.25;;;;-51
2020/02/27 00:35:21;;;;;;;1.25;1.15;;;;;;;18.16;39.83;99885.53;;;;-51
2020/02/27 00:38:21;;;;;;;1.06;1.05;;;;;;;18.15;39.80;99884.16;;;;-52
2020/02/27 00:41:21;;;;;;;1.16;1.08;;;;;;;18.15;39.80;99883.33;;;;-52
2020/02/27 00:44:21;;;;;;;1.30;1.20;;;;;;;18.12;39.83;99879.46;;;;-53
2020/02/27 00:47:21;;;;;;;1.28;1.18;;;;;;;18.13;39.85;99875.72;;;;-51
2020/02/27 00:50:21;;;;;;;1.55;1.19;;;;;;;18.12;39.82;99873.78;;;;-52
2020/02/27 00:53:21;;;;;;;1.00;1.00;;;;;;;18.11;39.84;99869.63;;;;-53
2020/02/27 00:56:21;;;;;;;1.17;1.07;;;;;;;18.10;39.83;99869.25;;;;-51
2020/02/27 00:59:21;;;;;;;1.01;1.01;;;;;;;18.10;39.85;99866.58;;;;-51
2020/02/27 01:02:21;;;;;;;1.30;1.20;;;;;;;18.10;39.85;99859.89;;;;-52
2020/02/27 01:05:21;;;;;;;1.25;1.15;;;;;;;18.09;39.88;99864.37;;;;-52
2020/02/27 01:08:21;;;;;;;1.17;1.13;;;;;;;18.08;39.82;99873.02;;;;-52
2020/02/27 01:11:21;;;;;;;1.17;1.10;;;;;;;18.08;39.83;99875.69;;;;-50
2020/02/27 01:14:21;;;;;;;1.31;1.21;;;;;;;18.07;39.87;99878.35;;;;-50
2020/02/27 01:17:21;;;;;;;1.31;1.21;;;;;;;18.07;39.87;99876.31;;;;-52
2020/02/27 01:20:21;;;;;;;17.39;1.73;;;;;;;18.06;39.85;99874.70;;;;-52
2020/02/27 01:23:21;;;;;;;1.24;1.14;;;;;;;18.05;39.86;99873.16;;;;-51
2020/02/27 01:26:21;;;;;;;1.04;1.01;;;;;;;18.03;39.89;99871.08;;;;-50
2020/02/27 01:29:21;;;;;;;1.01;1.00;;;;;;;18.03;39.89;99868.91;;;;-53
2020/02/27 01:32:21;;;;;;;1.14;1.04;;;;;;;18.03;39.89;99867.62;;;;-51
2020/02/27 01:35:21;;;;;;;1.29;1.19;;;;;;;18.03;39.89;99867.46;;;;-52
2020/02/27 01:38:21;;;;;;;1.45;1.20;;;;;;;18.03;39.94;99868.97;;;;-51
2020/02/27 01:41:21;;;;;;;1.29;1.12;;;;;;;18.02;39.87;99863.11;;;;-51
2020/02/27 01:44:21;;;;;;;1.09;1.09;;;;;;;18.01;39.92;99860.62;;;;-51
2020/02/27 01:47:21;;;;;;;1.27;1.17;;;;;;;18.01;39.96;99861.03;;;;-50
2020/02/27 01:50:21;;;;;;;1.20;1.10;;;;;;;18.00;39.93;99860.25;;;;-50
2020/02/27 01:53:21;;;;;;;1.21;1.11;;;;;;;18.00;39.92;99860.25;;;;-50
2020/02/27 01:56:21;;;;;;;1.43;1.15;;;;;;;18.00;39.94;99864.87;;;;-53
2020/02/27 01:59:21;;;;;;;1.17;1.12;;;;;;;17.99;39.92;99861.05;;;;-50
2020/02/27 02:02:21;;;;;;;1.29;1.07;;;;;;;17.99;39.93;99861.11;;;;-51
2020/02/27 02:05:21;;;;;;;1.17;1.09;;;;;;;17.98;39.94;99864.75;;;;-52
2020/02/27 02:08:21;;;;;;;1.51;1.20;;;;;;;17.97;39.96;99863.24;;;;-52
2020/02/27 02:11:21;;;;;;;1.09;1.09;;;;;;;17.96;39.94;99861.20;;;;-51
2020/02/27 02:14:21;;;;;;;1.09;1.09;;;;;;;17.96;39.95;99856.98;;;;-53
2020/02/27 02:17:21;;;;;;;1.34;1.24;;;;;;;17.96;39.93;99856.42;;;;-52
2020/02/27 02:20:21;;;;;;;1.09;1.01;;;;;;;17.95;39.95;99849.76;;;;-52
2020/02/27 02:23:21;;;;;;;1.15;1.11;;;;;;;17.94;39.93;99849.25;;;;-50
2020/02/27 02:26:21;;;;;;;1.31;1.21;;;;;;;17.94;39.93;99840.63;;;;-52
2020/02/27 02:29:21;;;;;;;1.14;1.05;;;;;;;17.94;39.90;99847.81;;;;-52
2020/02/27 02:32:43;;;;;;;1.35;1.20;;;;;;;17.93;39.93;99847.94;;;;-50
2020/02/27 02:35:35;;;;;;;1.11;1.01;;;;;;;17.93;39.94;99843.09;;;;-50
2020/02/27 02:38:21;;;;;;;1.01;1.01;;;;;;;17.92;39.94;99843.39;;;;-52
2020/02/27 02:41:21;;;;;;;1.24;1.10;;;;;;;17.91;39.96;99841.45;;;;-51
2020/02/27 02:44:21;;;;;;;1.30;1.20;;;;;;;17.91;39.94;99838.00;;;;-52
2020/02/27 02:47:21;;;;;;;1.30;1.20;;;;;;;17.90;39.94;99829.28;;;;-52
2020/02/27 02:50:21;;;;;;;1.21;1.12;;;;;;;17.90;39.95;99834.05;;;;-52
2020/02/27 02:53:21;;;;;;;1.29;1.19;;;;;;;17.89;39.94;99833.91;;;;-50
2020/02/27 02:56:21;;;;;;;1.20;1.13;;;;;;;17.89;39.94;99837.19;;;;-52
2020/02/27 02:59:21;;;;;;;1.22;1.12;;;;;;;17.88;39.95;99834.97;;;;-51
2020/02/27 03:02:21;;;;;;;1.28;1.18;;;;;;;17.88;39.95;99834.54;;;;-52
2020/02/27 03:05:21;;;;;;;1.14;1.11;;;;;;;17.87;39.96;99833.59;;;;-51
2020/02/27 03:08:21;;;;;;;1.23;1.15;;;;;;;17.86;39.97;99835.56;;;;-52
2020/02/27 03:11:21;;;;;;;1.27;1.17;;;;;;;17.87;39.98;99833.99;;;;-50
2020/02/27 03:14:21;;;;;;;1.01;1.01;;;;;;;17.86;39.98;99837.23;;;;-50
2020/02/27 03:17:21;;;;;;;1.23;1.13;;;;;;;17.85;39.97;99827.41;;;;-51
2020/02/27 03:20:21;;;;;;;1.25;1.15;;;;;;;17.85;39.99;99824.89;;;;-51
2020/02/27 03:23:21;;;;;;;1.18;1.10;;;;;;;17.84;39.97;99824.46;;;;-53
2020/02/27 03:26:21;;;;;;;1.45;1.17;;;;;;;17.84;39.98;99821.95;;;;-53
2020/02/27 03:29:21;;;;;;;1.01;1.01;;;;;;;17.83;39.96;99817.57;;;;-51
2020/02/27 03:32:21;;;;;;;0.97;0.97;;;;;;;17.84;39.98;99816.84;;;;-53
2020/02/27 03:35:21;;;;;;;1.20;1.10;;;;;;;17.83;39.98;99824.09;;;;-52
2020/02/27 03:38:21;;;;;;;1.28;1.15;;;;;;;17.83;40.02;99828.19;;;;-53
2020/02/27 03:41:21;;;;;;;1.26;1.17;;;;;;;17.82;40.00;99828.95;;;;-53
2020/02/27 03:44:21;;;;;;;1.21;1.09;;;;;;;17.82;40.02;99822.80;;;;-50
2020/02/27 03:47:21;;;;;;;1.27;1.17;;;;;;;17.81;40.02;99822.66;;;;-50
2020/02/27 03:50:28;;;;;;;1.51;1.20;;;;;;;17.81;40.00;99817.98;;;;-52
2020/02/27 03:53:21;;;;;;;1.16;1.08;;;;;;;17.80;39.99;99814.44;;;;-53
2020/02/27 03:56:21;;;;;;;1.00;1.00;;;;;;;17.80;40.02;99814.94;;;;-50
2020/02/27 03:59:21;;;;;;;1.29;1.19;;;;;;;17.79;40.04;99813.73;;;;-51
2020/02/27 04:02:21;;;;;;;1.12;1.10;;;;;;;17.79;40.01;99808.62;;;;-52
2020/02/27 04:05:21;;;;;;;1.27;1.11;;;;;;;17.78;39.99;99806.27;;;;-52
2020/02/27 04:08:21;;;;;;;1.03;1.03;;;;;;;17.78;39.99;99814.53;;;;-52
2020/02/27 04:11:25;;;;;;;1.31;1.21;;;;;;;17.78;40.03;99807.91;;;;-51
2020/02/27 04:14:21;;;;;;;1.03;1.01;;;;;;;17.77;40.02;99803.06;;;;-53
2020/02/27 04:17:21;;;;;;;1.25;1.10;;;;;;;17.76;40.02;99804.92;;;;-51
2020/02/27 04:20:21;;;;;;;1.20;1.10;;;;;;;17.76;40.00;99804.92;;;;-50
2020/02/27 04:23:21;;;;;;;1.22;1.12;;;;;;;17.76;40.01;99801.59;;;;-51
2020/02/27 04:26:21;;;;;;;1.19;1.09;;;;;;;17.75;40.01;99797.73;;;;-51
2020/02/27 04:29:21;;;;;;;1.02;1.00;;;;;;;17.76;39.96;99794.97;;;;-50
2020/02/27 04:32:21;;;;;;;1.27;1.17;;;;;;;17.74;40.00;99791.58;;;;-53
2020/02/27 04:35:21;;;;;;;1.25;1.15;;;;;;;17.74;40.02;99789.38;;;;-53
2020/02/27 04:38:21;;;;;;;1.00;1.00;;;;;;;17.73;40.02;99787.59;;;;-53
2020/02/27 04:41:21;;;;;;;1.01;1.01;;;;;;;17.73;40.01;99783.83;;;;-52
2020/02/27 04:44:21;;;;;;;1.09;1.09;;;;;;;17.74;40.01;99791.14;;;;-52
2020/02/27 04:47:21;;;;;;;1.40;1.12;;;;;;;17.75;40.05;99786.08;;;;-51
2020/02/27 04:50:21;;;;;;;1.17;1.07;;;;;;;17.77;40.02;99779.98;;;;-53
2020/02/27 04:53:21;;;;;;;1.20;1.10;;;;;;;17.77;40.02;99779.98;;;;-50
2020/02/27 04:56:21;;;;;;;0.99;0.99;;;;;;;17.78;39.96;99774.17;;;;-50
2020/02/27 04:59:21;;;;;;;1.13;1.03;;;;;;;17.80;40.00;99776.03;;;;-53
2020/02/27 05:02:21;;;;;;;0.95;0.95;;;;;;;17.82;40.01;99778.84;;;;-51
2020/02/27 05:05:21;;;;;;;1.09;0.99;;;;;;;17.85;40.00;99773.72;;;;-51
2020/02/27 05:08:21;;;;;;;1.07;0.99;;;;;;;17.87;39.98;99773.14;;;;-50
2020/02/27 05:11:21;;;;;;;1.06;1.00;;;;;;;17.91;40.00;99775.97;;;;-52
2020/02/27 05:14:21;;;;;;;1.09;1.04;;;;;;;17.94;40.00;99777.82;;;;-51
2020/02/27 05:17:21;;;;;;;1.00;1.00;;;;;;;17.98;40.03;99773.57;;;;-50
2020/02/27 05:20:21;;;;;;;1.21;1.08;;;;;;;18.03;40.07;99770.89;;;;-52
2020/02/27 05:23:21;;;;;;;1.20;1.10;;;;;;;18.06;40.06;99762.86;;;;-51
2020/02/27 05:29:24;;;;;;;1.01;1.01;;;;;;;18.14;40.15;99759.89;;;;-52
2020/02/27 05:32:35;;;;;;;0.97;0.94;;;;;;;18.19;40.16;99751.46;;;;-51
2020/02/27 05:35:23;;;;;;;0.99;0.99;;;;;;;18.24;40.15;99746.11;;;;-52
2020/02/27 05:38:21;;;;;;;1.21;1.11;;;;;;;18.28;40.27;99739.64;;;;-52
2020/02/27 05:41:21;;;;;;;1.22;1.12;;;;;;;18.33;40.29;99736.22;;;;-51
2020/02/27 05:44:21;;;;;;;1.01;1.00;;;;;;;18.35;40.19;99734.79;;;;-53
2020/02/27 05:47:21;;;;;;;0.99;0.99;;;;;;;18.39;40.25;99732.16;;;;-52
2020/02/27 05:50:21;;;;;;;1.00;1.00;;;;;;;18.42;40.17;99728.93;;;;-52
2020/02/27 05:53:21;;;;;;;0.90;0.90;;;;;;;18.46;40.13;99724.00;;;;-52
2020/02/27 05:56:21;;;;;;;1.64;1.10;;;;;;;18.48;40.21;99720.45;;;;-53
2020/02/27 05:59:21;;;;;;;1.19;1.10;;;;;;;18.52;40.17;99722.61;;;;-53
2020/02/27 06:02:21;;;;;;;1.08;1.01;;;;;;;18.54;40.16;99721.68;;;;-53
2020/02/27 06:05:26;;;;;;;1.03;1.03;;;;;;;18.58;40.15;99719.22;;;;-54
2020/02/27 06:08:21;;;;;;;1.03;1.00;;;;;;;18.61;40.19;99716.31;;;;-54
2020/02/27 06:11:21;;;;;;;1.42;1.19;;;;;;;18.64;40.15;99713.08;;;;-54
2020/02/27 06:14:21;;;;;;;0.87;0.87;;;;;;;18.66;40.14;99715.99;;;;-61
2020/02/27 06:17:21;;;;;;;1.18;1.09;;;;;;;18.70;40.14;99706.20;;;;-64
2020/02/27 06:20:21;;;;;;;1.03;1.03;;;;;;;18.72;40.08;99713.27;;;;-64
2020/02/27 06:23:21;;;;;;;1.20;1.10;;;;;;;18.75;40.07;99704.50;;;;-51
2020/02/27 06:26:21;;;;;;;1.20;1.10;;;;;;;18.78;40.04;99703.37;;;;-51
2020/02/27 06:29:21;;;;;;;1.21;1.11;;;;;;;18.81;40.02;99706.32;;;;-53
2020/02/27 06:32:21;;;;;;;1.02;1.00;;;;;;;18.84;40.02;99699.41;;;;-52
2020/02/27 06:35:21;;;;;;;0.95;0.95;;;;;;;18.86;40.02;99697.63;;;;-54
2020/02/27 06:38:21;;;;;;;1.07;0.99;;;;;;;18.87;39.98;99696.66;;;;-53
2020/02/27 06:41:21;;;;;;;1.11;1.01;;;;;;;18.91;39.90;99691.52;;;;-54
2020/02/27 06:44:21;;;;;;;1.59;1.20;;;;;;;18.92;39.94;99692.89;;;;-53
2020/02/27 06:47:21;;;;;;;1.43;1.29;;;;;;;18.94;39.95;99687.94;;;;-53
2020/02/27 06:50:21;;;;;;;1.16;1.07;;;;;;;18.97;39.90;99687.53;;;;-54
2020/02/27 06:53:22;;;;;;;1.20;1.10;;;;;;;18.98;39.90;99685.12;;;;-54
2020/02/27 06:56:21;;;;;;;0.91;0.90;;;;;;;19.02;39.84;99676.33;;;;-54
2020/02/27 06:59:21;;;;;;;1.06;1.01;;;;;;;19.03;39.82;99669.17;;;;-54
2020/02/27 07:05:23;;;;;;;1.01;1.00;;;;;;;19.07;39.80;99671.05;;;;-54
2020/02/27 07:08:21;;;;;;;1.16;1.05;;;;;;;19.08;39.77;99666.73;;;;-54
2020/02/27 07:11:21;;;;;;;1.15;1.05;;;;;;;19.11;39.75;99670.23;;;;-54
2020/02/27 07:14:21;;;;;;;1.01;1.01;;;;;;;19.13;39.70;99665.19;;;;-54
2020/02/27 07:17:21;;;;;;;1.29;1.13;;;;;;;19.12;39.69;99659.26;;;;-54
2020/02/27 07:20:21;;;;;;;1.25;1.15;;;;;;;19.14;39.69;99660.73;;;;-53
2020/02/27 07:23:21;;;;;;;1.21;1.11;;;;;;;19.15;39.67;99660.20;;;;-54
2020/02/27 07:26:21;;;;;;;1.10;1.10;;;;;;;19.15;39.63;99658.19;;;;-54
2020/02/27 07:29:21;;;;;;;1.29;1.19;;;;;;;19.16;39.62;99654.91;;;;-54
2020/02/27 07:32:21;;;;;;;1.25;1.15;;;;;;;19.16;39.60;99654.30;;;;-54
2020/02/27 07:35:21;;;;;;;1.29;1.19;;;;;;;19.19;39.52;99646.03;;;;-54
2020/02/27 07:38:21;;;;;;;1.47;1.17;;;;;;;19.20;39.50;99640.54;;;;-54
2020/02/27 07:41:21;;;;;;;1.12;1.02;;;;;;;19.20;39.48;99637.36;;;;-54
2020/02/27 07:44:21;;;;;;;2.24;1.20;;;;;;;19.22;39.47;99631.23;;;;-46
2020/02/27 07:47:21;;;;;;;1.81;1.09;;;;;;;19.26;40.14;99632.36;;;;-47
2020/02/27 07:50:21;;;;;;;1.59;1.10;;;;;;;19.28;40.20;99626.73;;;;-55
2020/02/27 07:53:21;;;;;;;1.19;1.09;;;;;;;19.31;39.78;99621.14;;;;-50
2020/02/27 07:56:21;;;;;;;1.76;1.20;;;;;;;19.35;40.27;99618.76;;;;-54
2020/02/27 07:59:21;;;;;;;1.28;1.18;;;;;;;19.39;40.28;99607.06;;;;-51
2020/02/27 08:02:21;;;;;;;1.53;1.15;;;;;;;19.43;40.18;99602.47;;;;-56
2020/02/27 08:05:21;;;;;;;1.29;1.12;;;;;;;19.45;39.97;99590.64;;;;-48
2020/02/27 08:08:21;;;;;;;1.62;1.19;;;;;;;19.48;40.11;99583.70;;;;-48
2020/02/27 08:11:21;;;;;;;1.21;1.11;;;;;;;19.52;40.39;99576.89;;;;-47
2020/02/27 08:14:21;;;;;;;1.66;1.09;;;;;;;19.54;40.22;99568.14;;;;-49
2020/02/27 08:17:21;;;;;;;3.73;1.38;;;;;;;19.54;39.85;99561.88;;;;-48
2020/02/27 08:20:21;;;;;;;1.37;1.21;;;;;;;19.54;39.15;99557.69;;;;-48
2020/02/27 08:23:21;;;;;;;3.79;1.23;;;;;;;19.54;39.15;99552.56;;;;-49
2020/02/27 08:26:21;;;;;;;1.77;1.11;;;;;;;19.54;39.20;99542.95;;;;-49
2020/02/27 08:29:21;;;;;;;2.86;1.21;;;;;;;19.54;38.83;99540.50;;;;-49
2020/02/27 08:32:21;;;;;;;2.08;1.24;;;;;;;19.56;39.57;99531.12;;;;-51
2020/02/27 08:35:21;;;;;;;1.29;1.19;;;;;;;19.60;39.72;99529.46;;;;-49
2020/02/27 08:38:21;;;;;;;3.60;1.20;;;;;;;19.62;39.44;99518.80;;;;-50
2020/02/27 08:41:36;;;;;;;2.23;1.25;;;;;;;19.65;39.47;99510.28;;;;-52
2020/02/27 08:44:21;;;;;;;2.68;1.28;;;;;;;19.67;39.27;99500.02;;;;-50
2020/02/27 08:47:21;;;;;;;1.74;1.25;;;;;;;19.70;39.69;99500.20;;;;-50
2020/02/27 08:50:21;;;;;;;2.41;1.27;;;;;;;19.71;39.33;99486.83;;;;-54
2020/02/27 08:53:21;;;;;;;2.50;1.30;;;;;;;19.73;39.18;99477.91;;;;-48
2020/02/27 08:56:21;;;;;;;2.05;1.18;;;;;;;19.74;38.84;99465.20;;;;-50
2020/02/27 08:59:21;;;;;;;2.35;1.30;;;;;;;19.75;38.71;99455.45;;;;-59
2020/02/27 09:02:21;;;;;;;1.61;1.29;;;;;;;19.78;39.01;99440.41;;;;-54
2020/02/27 09:05:21;;;;;;;3.38;1.53;;;;;;;19.81;39.22;99429.61;;;;-56
2020/02/27 09:08:21;;;;;;;2.65;1.39;;;;;;;19.83;39.32;99420.78;;;;-51
2020/02/27 09:11:21;;;;;;;1.71;1.21;;;;;;;19.84;39.11;99412.27;;;;-57
2020/02/27 09:14:21;;;;;;;1.87;1.32;;;;;;;19.86;38.81;99399.66;;;;-62
2020/02/27 09:17:21;;;;;;;1.56;1.30;;;;;;;19.88;38.86;99396.02;;;;-55
2020/02/27 09:20:21;;;;;;;1.92;1.37;;;;;;;19.92;39.13;99390.33;;;;-56
2020/02/27 09:23:21;;;;;;;2.04;1.31;;;;;;;19.91;38.44;99383.46;;;;-57
2020/02/27 09:26:21;;;;;;;1.35;1.25;;;;;;;19.94;38.68;99372.71;;;;-59
2020/02/27 09:29:21;;;;;;;1.52;1.24;;;;;;;19.95;38.94;99365.94;;;;-50
2020/02/27 09:32:21;;;;;;;1.83;1.30;;;;;;;19.95;39.03;99358.36;;;;-53
2020/02/27 09:35:21;;;;;;;2.19;1.22;;;;;;;19.95;38.77;99356.68;;;;-53
2020/02/27 09:38:21;;;;;;;1.67;1.25;;;;;;;19.99;38.87;99344.22;;;;-50
2020/02/27 09:41:21;;;;;;;1.91;1.32;;;;;;;20.00;39.03;99342.23;;;;-52
2020/02/27 09:44:21;;;;;;;1.89;1.24;;;;;;;20.00;38.96;99324.97;;;;-54
2020/02/27 09:47:21;;;;;;;1.91;1.27;;;;;;;20.03;38.95;99317.33;;;;-52
2020/02/27 09:50:21;;;;;;;2.33;1.30;;;;;;;20.07;39.09;99313.14;;;;-49
2020/02/27 09:53:21;;;;;;;3.88;1.21;;;;;;;20.08;39.16;99304.38;;;;-56
2020/02/27 09:56:21;;;;;;;1.75;1.21;;;;;;;20.10;39.01;99299.06;;;;-53
2020/02/27 09:59:21;;;;;;;1.77;1.35;;;;;;;20.11;39.22;99286.25;;;;-51
2020/02/27 10:02:21;;;;;;;1.63;1.28;;;;;;;20.13;39.23;99281.03;;;;-50
2020/02/27 10:05:21;;;;;;;1.55;1.15;;;;;;;20.12;38.96;99270.35;;;;-46
2020/02/27 10:08:21;;;;;;;3.46;1.33;;;;;;;20.14;39.61;99259.93;;;;-54
2020/02/27 10:11:21;;;;;;;4.18;1.41;;;;;;;20.14;39.05;99253.47;;;;-50
2020/02/27 10:14:21;;;;;;;1.59;1.28;;;;;;;20.14;39.14;99239.89;;;;-49
2020/02/27 10:17:21;;;;;;;3.11;1.43;;;;;;;20.14;39.06;99229.59;;;;-60
2020/02/27 10:20:21;;;;;;;3.13;1.37;;;;;;;20.15;39.11;99222.75;;;;-49
2020/02/27 10:23:21;;;;;;;2.38;1.25;;;;;;;20.15;38.82;99213.26;;;;-49
2020/02/27 10:26:21;;;;;;;1.31;1.21;;;;;;;20.15;38.43;99205.89;;;;-51
2020/02/27 10:29:21;;;;;;;1.85;1.31;;;;;;;20.15;38.86;99201.12;;;;-49
2020/02/27 10:32:21;;;;;;;1.40;1.20;;;;;;;20.15;38.59;99189.55;;;;-50
2020/02/27 10:35:21;;;;;;;3.52;1.30;;;;;;;20.15;38.33;99176.65;;;;-47
2020/02/27 10:38:21;;;;;;;1.40;1.21;;;;;;;20.17;38.49;99168.81;;;;-49
2020/02/27 10:41:21;;;;;;;1.41;1.23;;;;;;;20.17;38.38;99148.44;;;;-51
2020/02/27 10:44:21;;;;;;;2.57;1.43;;;;;;;20.16;38.50;99142.64;;;;-48
2020/02/27 10:47:21;;;;;;;2.41;1.20;;;;;;;20.17;38.26;99129.23;;;;-52
2020/02/27 10:50:21;;;;;;;2.94;1.51;;;;;;;20.18;38.75;99123.31;;;;-51
2020/02/27 10:53:21;;;;;;;2.62;1.30;;;;;;;20.19;38.49;99103.05;;;;-51
2020/02/27 10:56:21;;;;;;;1.38;1.20;;;;;;;20.19;38.44;99090.38;;;;-51
2020/02/27 10:59:21;;;;;;;1.75;1.30;;;;;;;20.18;38.46;99075.11;;;;-51
2020/02/27 11:02:21;;;;;;;4.60;1.47;;;;;;;20.18;38.36;99063.31;;;;-50
2020/02/27 11:05:21;;;;;;;1.71;1.20;;;;;;;20.17;38.39;99053.33;;;;-51
2020/02/27 11:08:21;;;;;;;1.66;1.33;;;;;;;20.16;38.33;99040.31;;;;-50
2020/02/27 11:11:21;;;;;;;1.71;1.21;;;;;;;20.15;38.28;99021.78;;;;-51
2020/02/27 11:14:21;;;;;;;1.89;1.20;;;;;;;20.14;38.25;99004.84;;;;-50
2020/02/27 11:17:21;;;;;;;1.77;1.20;;;;;;;20.14;38.28;98999.97;;;;-51
2020/02/27 11:20:21;;;;;;;3.15;1.40;;;;;;;20.13;38.21;98985.55;;;;-51
2020/02/27 11:26:22;;;;;;;1.46;0.96;;;;;;;20.12;38.28;98957.87;;;;-51
2020/02/27 11:29:21;;;;;;;2.28;1.44;;;;;;;20.12;38.22;98948.39;;;;-51
2020/02/27 11:32:21;;;;;;;2.05;1.28;;;;;;;20.11;38.20;98933.22;;;;-51
2020/02/27 11:35:21;;;;;;;2.08;1.19;;;;;;;20.11;38.23;98921.32;;;;-51
2020/02/27 11:38:21;;;;;;;1.41;1.20;;;;;;;20.11;38.21;98910.16;;;;-51
2020/02/27 11:41:21;;;;;;;1.61;1.18;;;;;;;20.10;38.16;98897.51;;;;-51
2020/02/27 11:44:21;;;;;;;1.53;1.20;;;;;;;20.09;38.15;98886.59;;;;-51
2020/02/27 11:47:21;;;;;;;1.43;1.22;;;;;;;20.09;38.21;98885.92;;;;-51
2020/02/27 11:50:21;;;;;;;1.45;1.30;;;;;;;20.09;38.11;98871.34;;;;-50
2020/02/27 11:53:21;;;;;;;1.19;1.09;;;;;;;20.09;38.18;98861.95;;;;-51
2020/02/27 11:56:21;;;;;;;1.71;1.32;;;;;;;20.10;38.09;98845.80;;;;-50
2020/02/27 11:59:21;;;;;;;1.31;1.10;;;;;;;20.09;38.13;98834.80;;;;-51
2020/02/27 12:02:21;;;;;;;1.31;1.20;;;;;;;20.10;38.14;98820.31;;;;-50
2020/02/27 12:05:21;;;;;;;1.71;1.19;;;;;;;20.11;38.10;98812.38;;;;-51
2020/02/27 12:08:21;;;;;;;1.55;1.20;;;;;;;20.10;38.11;98794.61;;;;-51
2020/02/27 12:11:21;;;;;;;1.31;1.20;;;;;;;20.10;38.09;98781.94;;;;-51
2020/02/27 12:14:21;;;;;;;1.50;1.20;;;;;;;20.11;38.23;98774.91;;;;-51
2020/02/27 12:17:21;;;;;;;1.20;1.07;;;;;;;20.11;38.20;98769.22;;;;-51
2020/02/27 12:20:21;;;;;;;1.59;1.21;;;;;;;20.11;38.19;98756.42;;;;-51
2020/02/27 12:23:21;;;;;;;4.40;1.50;;;;;;;20.09;37.90;98745.39;;;;-49
2020/02/27 12:26:21;;;;;;;2.06;1.37;;;;;;;20.07;37.43;98738.25;;;;-51
2020/02/27 12:29:21;;;;;;;1.61;1.25;;;;;;;20.06;37.23;98727.93;;;;-51
2020/02/27 12:32:20;;;;;;;1.91;1.21;;;;;;;20.04;37.35;98717.88;;;;-51
2020/02/27 12:35:20;;;;;;;2.43;1.30;;;;;;;20.04;37.34;98706.38;;;;-49
2020/02/27 12:38:21;;;;;;;1.63;1.25;;;;;;;20.04;37.49;98693.98;;;;-49
2020/02/27 12:41:21;;;;;;;2.07;1.30;;;;;;;20.03;37.56;98679.88;;;;-50
2020/02/27 12:44:21;;;;;;;1.77;1.30;;;;;;;20.02;37.41;98663.39;;;;-49
2020/02/27 12:47:21;;;;;;;3.49;1.19;;;;;;;20.03;37.39;98651.34;;;;-51
2020/02/27 12:50:21;;;;;;;1.73;1.21;;;;;;;20.06;37.42;98638.38;;;;-51
2020/02/27 12:53:21;;;;;;;2.54;1.48;;;;;;;20.09;37.66;98631.05;;;;-51
2020/02/27 12:56:21;;;;;;;1.66;1.19;;;;;;;20.10;37.64;98620.16;;;;-51
2020/02/27 12:59:21;;;;;;;1.34;1.24;;;;;;;20.10;37.68;98598.13;;;;-51
2020/02/27 13:02:20;;;;;;;1.43;1.20;;;;;;;20.12;37.83;98589.25;;;;-51
2020/02/27 13:05:20;;;;;;;1.67;1.20;;;;;;;20.12;37.82;98574.09;;;;-50
2020/02/27 13:08:21;;;;;;;3.41;1.16;;;;;;;20.13;37.82;98563.89;;;;-50
2020/02/27 13:11:21;;;;;;;1.46;1.22;;;;;;;20.14;37.82;98549.82;;;;-51
2020/02/27 13:14:21;;;;;;;2.00;1.37;;;;;;;20.15;37.89;98548.74;;;;-52
2020/02/27 13:17:21;;;;;;;1.31;1.03;;;;;;;20.14;37.91;98531.72;;;;-52
2020/02/27 13:20:21;;;;;;;1.22;1.12;;;;;;;20.15;37.89;98533.08;;;;-52
2020/02/27 13:23:21;;;;;;;3.41;1.36;;;;;;;20.16;37.88;98522.77;;;;-52
2020/02/27 13:26:21;;;;;;;1.23;1.13;;;;;;;20.16;37.91;98510.62;;;;-51
2020/02/27 13:29:21;;;;;;;1.56;1.20;;;;;;;20.17;37.92;98499.82;;;;-51
2020/02/27 13:32:21;;;;;;;1.30;1.20;;;;;;;20.18;37.95;98482.08;;;;-51
2020/02/27 13:35:20;;;;;;;1.31;1.17;;;;;;;20.18;37.91;98479.73;;;;-52
2020/02/27 13:38:20;;;;;;;1.43;1.23;;;;;;;20.18;37.94;98463.13;;;;-51
2020/02/27 13:41:21;;;;;;;1.33;1.20;;;;;;;20.19;37.97;98452.75;;;;-51
2020/02/27 13:44:21;;;;;;;1.45;1.12;;;;;;;20.19;37.94;98426.60;;;;-47
2020/02/27 13:47:21;;;;;;;1.65;1.28;;;;;;;20.18;38.00;98405.98;;;;-47
2020/02/27 13:50:21;;;;;;;1.23;1.11;;;;;;;20.20;37.92;98395.95;;;;-49
2020/02/27 13:53:22;;;;;;;1.29;1.19;;;;;;;20.19;37.93;98372.23;;;;-56
2020/02/27 13:56:21;;;;;;;1.73;1.13;;;;;;;20.20;37.92;98385.13;;;;-57
2020/02/27 13:59:21;;;;;;;3.11;1.55;;;;;;;20.23;38.00;98367.72;;;;-58
2020/02/27 14:02:21;;;;;;;4.98;1.48;;;;;;;20.24;38.34;98356.35;;;;-57
2020/02/27 14:05:20;;;;;;;2.47;1.45;;;;;;;20.27;38.66;98334.56;;;;-57
2020/02/27 14:08:21;;;;;;;1.36;1.20;;;;;;;20.29;38.57;98322.75;;;;-56
2020/02/27 14:11:20;;;;;;;3.19;1.59;;;;;;;20.28;38.44;98317.50;;;;-64
2020/02/27 14:14:21;;;;;;;3.86;1.49;;;;;;;20.30;38.29;98317.92;;;;-63
2020/02/27 14:17:21;;;;;;;4.44;1.61;;;;;;;20.32;38.49;98298.91;;;;-64
2020/02/27 14:20:21;;;;;;;3.08;1.61;;;;;;;20.32;38.64;98288.83;;;;-63
2020/02/27 14:23:21;;;;;;;3.71;1.61;;;;;;;20.33;38.42;98277.28;;;;-64
2020/02/27 14:26:21;;;;;;;3.82;1.69;;;;;;;20.33;38.58;98267.56;;;;-51
2020/02/27 14:29:21;;;;;;;3.57;1.67;;;;;;;20.33;38.60;98248.03;;;;-59
2020/02/27 14:32:21;;;;;;;2.32;1.61;;;;;;;20.34;38.52;98230.19;;;;-56
2020/02/27 14:35:21;;;;;;;3.69;1.91;;;;;;;20.34;38.17;98211.66;;;;-57
2020/02/27 14:38:20;;;;;;;5.63;1.91;;;;;;;20.33;38.03;98198.41;;;;-57
2020/02/27 14:41:20;;;;;;;2.30;1.66;;;;;;;20.33;38.02;98197.59;;;;-57
2020/02/27 14:44:20;;;;;;;3.68;1.93;;;;;;;20.32;37.83;98190.70;;;;-57
2020/02/27 14:47:20;;;;;;;2.98;1.74;;;;;;;20.31;37.83;98176.12;;;;-57
2020/02/27 14:50:21;;;;;;;4.19;1.83;;;;;;;20.30;37.70;98166.05;;;;-57
2020/02/27 14:53:21;;;;;;;2.59;1.69;;;;;;;20.30;37.77;98156.92;;;;-57
2020/02/27 14:56:21;;;;;;;2.97;1.81;;;;;;;20.28;37.72;98129.95;;;;-57
2020/02/27 14:59:21;;;;;;;1.89;1.69;;;;;;;20.28;37.68;98111.85;;;;-56
2020/02/27 15:02:21;;;;;;;2.18;1.81;;;;;;;20.28;37.64;98098.27;;;;-57
2020/02/27 15:05:21;;;;;;;2.27;1.81;;;;;;;20.28;37.75;98088.89;;;;-57
2020/02/27 15:12:20;;;;;;;3.08;1.72;;;;;;;20.28;37.77;98056.03;;;;-57
2020/02/27 15:15:21;;;;;;;2.81;1.63;;;;;;;20.28;37.77;98037.83;;;;-56
2020/02/27 15:18:21;;;;;;;2.25;1.62;;;;;;;20.27;37.81;98025.03;;;;-57
2020/02/27 15:21:21;;;;;;;3.66;1.71;;;;;;;20.26;37.82;98008.78;;;;-57
2020/02/27 15:24:21;;;;;;;2.37;1.61;;;;;;;20.26;37.86;98000.14;;;;-57
2020/02/27 15:27:21;;;;;;;2.18;1.62;;;;;;;20.26;37.87;97988.22;;;;-57
2020/02/27 15:30:21;;;;;;;1.92;1.74;;;;;;;20.26;37.81;97988.15;;;;-57
2020/02/27 15:33:21;;;;;;;2.19;1.75;;;;;;;20.25;37.82;97972.41;;;;-56
2020/02/27 15:36:21;;;;;;;2.21;1.70;;;;;;;20.25;37.87;97949.44;;;;-57
2020/02/27 15:39:20;;;;;;;2.02;1.65;;;;;;;20.24;37.86;97934.37;;;;-56
2020/02/27 15:42:20;;;;;;;1.92;1.60;;;;;;;20.24;37.77;97912.08;;;;-57
2020/02/27 15:45:20;;;;;;;2.42;1.65;;;;;;;20.25;37.72;97887.84;;;;-57
2020/02/27 15:48:20;;;;;;;2.17;1.60;;;;;;;20.24;37.80;97876.88;;;;-57
2020/02/27 15:51:21;;;;;;;2.01;1.69;;;;;;;20.25;37.77;97864.33;;;;-57
2020/02/27 15:54:21;;;;;;;3.03;1.70;;;;;;;20.25;37.88;97853.66;;;;-52
2020/02/27 15:57:21;;;;;;;2.96;1.76;;;;;;;20.25;38.32;97851.75;;;;-54
2020/02/27 16:00:21;;;;;;;2.04;1.63;;;;;;;20.26;38.43;97840.67;;;;-57
2020/02/27 16:03:21;;;;;;;2.17;1.60;;;;;;;20.27;38.48;97831.64;;;;-57
2020/02/27 16:06:21;;;;;;;1.95;1.63;;;;;;;20.28;38.78;97802.97;;;;-60
2020/02/27 16:09:21;;;;;;;2.61;1.68;;;;;;;20.29;38.35;97797.34;;;;-61
2020/02/27 16:12:20;;;;;;;2.73;1.67;;;;;;;20.30;38.17;97799.02;;;;-61
2020/02/27 16:15:20;;;;;;;2.19;1.70;;;;;;;20.31;38.39;97779.58;;;;-63
2020/02/27 16:18:20;;;;;;;2.07;1.77;;;;;;;20.31;38.43;97783.36;;;;-61
2020/02/27 16:21:21;;;;;;;3.35;1.68;;;;;;;20.32;38.63;97773.89;;;;-61
2020/02/27 16:24:21;;;;;;;2.81;1.75;;;;;;;20.33;38.82;97770.27;;;;-55
2020/02/27 16:27:21;;;;;;;2.49;1.71;;;;;;;20.33;38.70;97744.80;;;;-55
2020/02/27 16:30:21;;;;;;;3.56;1.70;;;;;;;20.35;38.78;97740.45;;;;-53
2020/02/27 16:33:21;;;;;;;2.49;1.67;;;;;;;20.35;38.70;97734.48;;;;-57
2020/02/27 16:36:21;;;;;;;1.90;1.67;;;;;;;20.36;38.66;97727.52;;;;-55
2020/02/27 16:39:21;;;;;;;3.33;1.81;;;;;;;20.39;38.84;97714.96;;;;-54
2020/02/27 16:42:20;;;;;;;2.21;1.70;;;;;;;20.38;38.80;97713.13;;;;-52
2020/02/27 16:45:20;;;;;;;2.25;1.65;;;;;;;20.37;38.78;97704.98;;;;-52
2020/02/27 16:48:30;;;;;;;2.17;1.81;;;;;;;20.39;38.86;97682.93;;;;-51
2020/02/27 16:51:20;;;;;;;2.05;1.58;;;;;;;20.40;38.88;97675.73;;;;-55
2020/02/27 16:54:21;;;;;;;1.79;1.60;;;;;;;20.41;38.75;97671.19;;;;-56
2020/02/27 16:57:21;;;;;;;2.52;1.65;;;;;;;20.43;38.84;97682.41;;;;-64
2020/02/27 17:00:21;;;;;;;4.48;1.68;;;;;;;20.43;38.75;97685.17;;;;-58
2020/02/27 17:03:21;;;;;;;2.53;1.63;;;;;;;20.45;38.79;97711.92;;;;-52
2020/02/27 17:06:21;;;;;;;2.35;1.71;;;;;;;20.44;38.92;97732.19;;;;-55
2020/02/27 17:09:21;;;;;;;2.08;1.77;;;;;;;20.46;39.15;97728.35;;;;-56